createdAt,value
2019-03-10T00:00:21.085Z,7.71
2019-03-10T00:01:21.073Z,7.71
2019-03-10T00:02:21.054Z,7.69
2019-03-10T00:03:21.068Z,7.71
2019-03-10T00:04:21.082Z,7.7
2019-03-10T00:05:21.068Z,7.71
2019-03-10T00:06:21.080Z,7.69
2019-03-10T00:07:21.057Z,7.69
2019-03-10T00:08:21.066Z,7.7
2019-03-10T00:09:21.104Z,7.68
2019-03-10T00:10:21.053Z,7.69
2019-03-10T00:11:21.064Z,7.67
2019-03-10T00:12:21.079Z,7.66
2019-03-10T00:13:21.063Z,7.66
2019-03-10T00:14:21.327Z,7.67
2019-03-10T00:15:21.038Z,7.67
2019-03-10T00:16:21.121Z,7.67
2019-03-10T00:17:21.049Z,7.67
2019-03-10T00:18:21.061Z,7.66
2019-03-10T00:19:21.062Z,7.66
2019-03-10T00:20:21.031Z,7.65
2019-03-10T00:21:21.046Z,7.66
2019-03-10T00:22:21.041Z,7.66
2019-03-10T00:23:21.034Z,7.68
2019-03-10T00:24:21.031Z,7.68
2019-03-10T00:25:21.097Z,7.68
2019-03-10T00:26:21.478Z,7.68
2019-03-10T00:27:21.067Z,7.67
2019-03-10T00:28:21.046Z,7.67
2019-03-10T00:29:21.046Z,7.69
2019-03-10T00:30:21.061Z,7.69
2019-03-10T00:31:21.014Z,7.69
2019-03-10T00:32:21.023Z,7.69
2019-03-10T00:33:21.085Z,7.68
2019-03-10T00:34:21.012Z,7.67
2019-03-10T00:35:21.042Z,7.69
2019-03-10T00:36:21.339Z,7.67
2019-03-10T00:37:21.034Z,7.67
2019-03-10T00:38:21.136Z,7.68
2019-03-10T00:39:21.021Z,7.7
2019-03-10T00:40:21.039Z,7.72
2019-03-10T00:41:21.012Z,7.69
2019-03-10T00:42:21.053Z,7.72
2019-03-10T00:43:21.011Z,7.7
2019-03-10T00:44:21.040Z,7.7
2019-03-10T00:45:21.030Z,7.72
2019-03-10T00:46:21.000Z,7.7
2019-03-10T00:47:21.012Z,7.72
2019-03-10T00:48:20.999Z,7.73
2019-03-10T00:49:21.018Z,7.76
2019-03-10T00:50:21.018Z,7.73
2019-03-10T00:51:21.032Z,7.79
2019-03-10T00:52:21.014Z,7.79
2019-03-10T00:53:21.011Z,7.75
2019-03-10T00:54:20.985Z,7.8
2019-03-10T00:55:21.007Z,7.76
2019-03-10T00:56:20.998Z,7.77
2019-03-10T00:57:21.003Z,7.75
2019-03-10T00:58:21.934Z,7.74
2019-03-10T00:59:21.010Z,7.78
2019-03-10T01:00:21.110Z,7.79
2019-03-10T01:01:21.002Z,7.8
2019-03-10T01:02:20.975Z,7.76
2019-03-10T01:03:20.978Z,7.79
2019-03-10T01:04:20.973Z,7.79
2019-03-10T01:05:21.013Z,7.82
2019-03-10T01:06:21.002Z,7.8
2019-03-10T01:07:21.003Z,7.78
2019-03-10T01:08:22.296Z,7.82
2019-03-10T01:09:21.000Z,7.81
2019-03-10T01:10:20.972Z,7.82
2019-03-10T01:11:20.975Z,7.79
2019-03-10T01:12:20.983Z,7.82
2019-03-10T01:13:20.987Z,7.8
2019-03-10T01:14:21.071Z,7.81
2019-03-10T01:15:20.996Z,7.83
2019-03-10T01:16:20.976Z,7.82
2019-03-10T01:17:21.016Z,7.86
2019-03-10T01:18:20.977Z,7.84
2019-03-10T01:19:20.969Z,7.89
2019-03-10T01:20:20.979Z,7.88
2019-03-10T01:21:21.016Z,7.9
2019-03-10T01:22:20.971Z,7.86
2019-03-10T01:23:20.965Z,7.92
2019-03-10T01:24:20.968Z,7.9
2019-03-10T01:25:20.982Z,7.9
2019-03-10T01:26:20.978Z,7.89
2019-03-10T01:27:21.007Z,7.89
2019-03-10T01:28:20.981Z,7.88
2019-03-10T01:29:20.969Z,7.88
2019-03-10T01:30:20.972Z,7.92
2019-03-10T01:31:20.963Z,7.9
2019-03-10T01:32:20.958Z,7.93
2019-03-10T01:33:21.002Z,7.97
2019-03-10T01:34:20.951Z,7.94
2019-03-10T01:35:20.942Z,7.95
2019-03-10T01:36:20.942Z,7.94
2019-03-10T01:37:20.959Z,7.94
2019-03-10T01:38:20.940Z,7.95
2019-03-10T01:39:20.993Z,7.94
2019-03-10T01:40:20.947Z,7.97
2019-03-10T01:41:20.953Z,7.95
2019-03-10T01:42:21.235Z,7.94
2019-03-10T01:43:20.934Z,7.93
2019-03-10T01:44:20.916Z,7.92
2019-03-10T01:45:20.949Z,7.92
2019-03-10T01:46:20.919Z,7.93
2019-03-10T01:47:20.945Z,7.91
2019-03-10T01:48:20.927Z,7.92
2019-03-10T01:49:20.921Z,7.92
2019-03-10T01:50:20.927Z,7.9
2019-03-10T01:51:20.923Z,7.92
2019-03-10T01:52:20.941Z,7.96
2019-03-10T01:53:26.226Z,7.96
2019-03-10T01:54:21.547Z,7.94
2019-03-10T01:55:20.949Z,7.92
2019-03-10T01:56:20.957Z,7.93
2019-03-10T01:57:20.918Z,7.92
2019-03-10T01:58:20.961Z,7.94
2019-03-10T01:59:20.977Z,7.92
2019-03-10T02:00:20.943Z,7.9
2019-03-10T02:01:20.895Z,7.91
2019-03-10T02:02:26.186Z,7.93
2019-03-10T02:03:20.915Z,7.9
2019-03-10T02:04:20.898Z,7.93
2019-03-10T02:05:20.902Z,7.97
2019-03-10T02:06:20.925Z,7.97
2019-03-10T02:07:20.934Z,7.98
2019-03-10T02:08:20.902Z,7.97
2019-03-10T02:09:20.907Z,7.95
2019-03-10T02:10:20.891Z,7.94
2019-03-10T02:11:20.922Z,7.96
2019-03-10T02:12:20.907Z,7.94
2019-03-10T02:13:20.904Z,7.99
2019-03-10T02:14:20.906Z,7.98
2019-03-10T02:15:20.902Z,7.97
2019-03-10T02:16:20.889Z,7.97
2019-03-10T02:17:20.906Z,7.99
2019-03-10T02:18:20.887Z,8
2019-03-10T02:19:20.945Z,8.02
2019-03-10T02:20:20.900Z,8.02
2019-03-10T02:21:20.884Z,8.03
2019-03-10T02:22:20.880Z,8.02
2019-03-10T02:23:20.880Z,8.03
2019-03-10T02:24:24.517Z,8.06
2019-03-10T02:25:20.974Z,8.04
2019-03-10T02:26:20.899Z,8.04
2019-03-10T02:27:20.894Z,8.11
2019-03-10T02:28:20.880Z,8.17
2019-03-10T02:29:20.961Z,8.17
2019-03-10T02:30:20.913Z,8.19
2019-03-10T02:31:20.873Z,8.15
2019-03-10T02:32:20.860Z,8.19
2019-03-10T02:33:20.866Z,8.21
2019-03-10T02:34:20.942Z,8.22
2019-03-10T02:35:20.879Z,8.16
2019-03-10T02:36:20.870Z,8.12
2019-03-10T02:37:20.865Z,8.17
2019-03-10T02:38:20.866Z,8.18
2019-03-10T02:39:20.858Z,8.19
2019-03-10T02:40:20.874Z,8.15
2019-03-10T02:41:20.866Z,8.17
2019-03-10T02:42:20.855Z,8.19
2019-03-10T02:43:20.900Z,8.18
2019-03-10T02:44:20.862Z,8.16
2019-03-10T02:45:20.871Z,8.17
2019-03-10T02:46:20.882Z,8.17
2019-03-10T02:47:22.292Z,8.14
2019-03-10T02:48:20.870Z,8.13
2019-03-10T02:49:20.867Z,8.14
2019-03-10T02:50:20.881Z,8.16
2019-03-10T02:51:20.981Z,8.14
2019-03-10T02:52:20.868Z,8.18
2019-03-10T02:53:20.896Z,8.16
2019-03-10T02:54:20.876Z,8.17
2019-03-10T02:55:20.906Z,8.16
2019-03-10T02:56:20.883Z,8.17
2019-03-10T02:57:20.868Z,8.15
2019-03-10T02:58:20.897Z,8.13
2019-03-10T02:59:20.870Z,8.09
2019-03-10T03:00:20.907Z,8.17
2019-03-10T03:01:20.885Z,8.11
2019-03-10T03:02:20.865Z,8.07
2019-03-10T03:03:20.817Z,8.08
2019-03-10T03:04:20.864Z,8.07
2019-03-10T03:05:20.857Z,8.14
2019-03-10T03:06:20.851Z,8.09
2019-03-10T03:07:20.852Z,8.11
2019-03-10T03:08:20.894Z,8.17
2019-03-10T03:09:20.843Z,8.14
2019-03-10T03:10:20.798Z,8.14
2019-03-10T03:11:20.807Z,8.14
2019-03-10T03:12:20.813Z,8.15
2019-03-10T03:13:20.859Z,8.18
2019-03-10T03:14:20.832Z,8.15
2019-03-10T03:15:20.807Z,8.14
2019-03-10T03:16:20.895Z,8.14
2019-03-10T03:17:20.806Z,8.14
2019-03-10T03:18:20.824Z,8.17
2019-03-10T03:19:20.814Z,8.17
2019-03-10T03:20:20.877Z,8.17
2019-03-10T03:21:20.826Z,8.11
2019-03-10T03:22:20.847Z,8.12
2019-03-10T03:23:20.790Z,8.18
2019-03-10T03:24:20.826Z,8.1
2019-03-10T03:25:20.806Z,8.14
2019-03-10T03:26:20.811Z,8.11
2019-03-10T03:27:20.784Z,8.1
2019-03-10T03:28:20.846Z,8.12
2019-03-10T03:29:20.838Z,8.19
2019-03-10T03:30:21.006Z,8.12
2019-03-10T03:31:20.861Z,8.11
2019-03-10T03:32:20.947Z,8.09
2019-03-10T03:33:20.895Z,8.17
2019-03-10T03:34:20.845Z,8.15
2019-03-10T03:35:20.804Z,8.11
2019-03-10T03:36:20.815Z,8.18
2019-03-10T03:37:20.863Z,8.13
2019-03-10T03:38:20.842Z,8.12
2019-03-10T03:39:20.791Z,8.16
2019-03-10T03:40:20.838Z,8.11
2019-03-10T03:41:20.794Z,8.13
2019-03-10T03:42:20.788Z,8.13
2019-03-10T03:43:20.764Z,8.15
2019-03-10T03:44:20.811Z,8.16
2019-03-10T03:45:20.781Z,8.13
2019-03-10T03:46:20.831Z,8.18
2019-03-10T03:47:20.814Z,8.17
2019-03-10T03:48:20.778Z,8.15
2019-03-10T03:49:20.767Z,8.2
2019-03-10T03:50:20.765Z,8.21
2019-03-10T03:51:20.809Z,8.25
2019-03-10T03:52:21.065Z,8.26
2019-03-10T03:53:20.810Z,8.24
2019-03-10T03:54:20.783Z,8.27
2019-03-10T03:55:20.760Z,8.28
2019-03-10T03:56:20.755Z,8.29
2019-03-10T03:57:20.785Z,8.32
2019-03-10T03:58:20.756Z,8.3
2019-03-10T03:59:20.762Z,8.35
2019-03-10T04:00:20.773Z,8.26
2019-03-10T04:01:20.756Z,8.33
2019-03-10T04:02:20.756Z,8.34
2019-03-10T04:03:20.752Z,8.38
2019-03-10T04:04:20.797Z,8.4
2019-03-10T04:05:20.840Z,8.4
2019-03-10T04:06:20.882Z,8.38
2019-03-10T04:07:20.816Z,8.35
2019-03-10T04:08:20.741Z,8.35
2019-03-10T04:09:20.772Z,8.36
2019-03-10T04:10:20.759Z,8.39
2019-03-10T04:11:20.750Z,8.35
2019-03-10T04:12:20.717Z,8.3
2019-03-10T04:13:20.964Z,8.35
2019-03-10T04:14:21.013Z,8.38
2019-03-10T04:15:20.725Z,8.33
2019-03-10T04:16:20.801Z,8.32
2019-03-10T04:17:20.745Z,8.31
2019-03-10T04:18:20.769Z,8.29
2019-03-10T04:19:20.738Z,8.22
2019-03-10T04:20:20.732Z,8.25
2019-03-10T04:21:20.712Z,8.24
2019-03-10T04:22:20.701Z,8.25
2019-03-10T04:23:20.735Z,8.26
2019-03-10T04:24:20.715Z,8.25
2019-03-10T04:25:20.814Z,8.2
2019-03-10T04:26:20.732Z,8.18
2019-03-10T04:27:20.721Z,8.23
2019-03-10T04:28:20.716Z,8.21
2019-03-10T04:29:22.104Z,8.17
2019-03-10T04:30:20.704Z,8.21
2019-03-10T04:31:20.719Z,8.21
2019-03-10T04:32:20.691Z,8.18
2019-03-10T04:33:20.691Z,8.14
2019-03-10T04:34:20.702Z,8.13
2019-03-10T04:35:20.865Z,8.15
2019-03-10T04:36:20.727Z,8.13
2019-03-10T04:37:20.706Z,8.11
2019-03-10T04:38:20.723Z,8.09
2019-03-10T04:39:20.778Z,8.1
2019-03-10T04:40:20.716Z,8.08
2019-03-10T04:41:20.684Z,8.13
2019-03-10T04:42:20.702Z,8.09
2019-03-10T04:43:20.793Z,8.1
2019-03-10T04:44:20.679Z,8.07
2019-03-10T04:45:20.718Z,8.04
2019-03-10T04:46:20.688Z,8.04
2019-03-10T04:47:20.679Z,8.08
2019-03-10T04:48:20.677Z,8.08
2019-03-10T04:49:20.693Z,8.08
2019-03-10T04:50:20.671Z,8.03
2019-03-10T04:51:20.673Z,8.05
2019-03-10T04:52:20.705Z,8.05
2019-03-10T04:53:20.685Z,8.02
2019-03-10T04:54:20.678Z,8.02
2019-03-10T04:55:20.704Z,8.01
2019-03-10T04:56:20.679Z,8
2019-03-10T04:57:20.673Z,8.01
2019-03-10T04:58:20.670Z,8
2019-03-10T04:59:20.655Z,8.01
2019-03-10T05:00:20.952Z,8.01
2019-03-10T05:01:20.685Z,8
2019-03-10T05:02:20.684Z,8
2019-03-10T05:03:20.668Z,7.99
2019-03-10T05:04:20.681Z,7.93
2019-03-10T05:05:20.687Z,7.98
2019-03-10T05:06:20.834Z,7.96
2019-03-10T05:07:20.819Z,7.99
2019-03-10T05:08:20.648Z,7.96
2019-03-10T05:09:20.654Z,7.96
2019-03-10T05:10:20.646Z,7.98
2019-03-10T05:11:20.651Z,7.96
2019-03-10T05:12:20.655Z,7.96
2019-03-10T05:13:20.645Z,7.95
2019-03-10T05:14:20.634Z,7.93
2019-03-10T05:15:20.676Z,7.95
2019-03-10T05:16:20.757Z,7.95
2019-03-10T05:17:20.644Z,7.94
2019-03-10T05:18:20.646Z,7.94
2019-03-10T05:19:20.638Z,7.93
2019-03-10T05:20:20.708Z,7.94
2019-03-10T05:21:20.657Z,7.92
2019-03-10T05:22:20.624Z,7.94
2019-03-10T05:23:20.630Z,7.93
2019-03-10T05:24:20.685Z,7.89
2019-03-10T05:25:20.616Z,7.89
2019-03-10T05:26:20.650Z,7.91
2019-03-10T05:27:20.637Z,7.94
2019-03-10T05:28:20.721Z,7.93
2019-03-10T05:29:20.664Z,7.9
2019-03-10T05:30:20.632Z,7.92
2019-03-10T05:31:20.750Z,7.92
2019-03-10T05:32:20.621Z,7.89
2019-03-10T05:33:20.621Z,7.89
2019-03-10T05:34:20.626Z,7.9
2019-03-10T05:35:20.640Z,7.89
2019-03-10T05:36:20.618Z,7.88
2019-03-10T05:37:20.614Z,7.89
2019-03-10T05:38:20.616Z,7.87
2019-03-10T05:39:20.604Z,7.88
2019-03-10T05:40:20.623Z,7.9
2019-03-10T05:41:20.624Z,7.88
2019-03-10T05:42:20.635Z,7.89
2019-03-10T05:43:20.617Z,7.92
2019-03-10T05:44:20.661Z,7.92
2019-03-10T05:45:20.607Z,7.91
2019-03-10T05:46:20.611Z,7.9
2019-03-10T05:47:20.595Z,7.92
2019-03-10T05:48:20.603Z,7.93
2019-03-10T05:49:20.623Z,7.91
2019-03-10T05:50:20.605Z,7.89
2019-03-10T05:51:20.600Z,7.9
2019-03-10T05:52:20.589Z,7.91
2019-03-10T05:53:20.599Z,7.95
2019-03-10T05:54:20.639Z,7.94
2019-03-10T05:55:20.619Z,7.94
2019-03-10T05:56:20.574Z,7.95
2019-03-10T05:57:20.596Z,7.95
2019-03-10T05:58:20.583Z,7.96
2019-03-10T05:59:20.630Z,7.94
2019-03-10T06:00:20.641Z,7.91
2019-03-10T06:01:20.596Z,7.93
2019-03-10T06:02:20.583Z,7.93
2019-03-10T06:03:20.603Z,7.92
2019-03-10T06:04:20.587Z,7.91
2019-03-10T06:05:20.598Z,7.93
2019-03-10T06:06:20.605Z,7.93
2019-03-10T06:07:20.569Z,7.95
2019-03-10T06:08:20.647Z,7.95
2019-03-10T06:09:20.581Z,7.93
2019-03-10T06:10:20.578Z,7.94
2019-03-10T06:11:20.662Z,7.96
2019-03-10T06:12:20.644Z,7.97
2019-03-10T06:13:20.596Z,7.96
2019-03-10T06:14:20.609Z,7.95
2019-03-10T06:15:20.648Z,7.94
2019-03-10T06:16:20.576Z,7.94
2019-03-10T06:17:21.852Z,7.96
2019-03-10T06:18:20.559Z,7.93
2019-03-10T06:19:20.721Z,7.96
2019-03-10T06:20:20.562Z,7.96
2019-03-10T06:21:20.559Z,7.99
2019-03-10T06:22:20.612Z,8.01
2019-03-10T06:23:20.593Z,8
2019-03-10T06:24:20.630Z,7.99
2019-03-10T06:25:20.575Z,7.99
2019-03-10T06:26:20.553Z,7.99
2019-03-10T06:27:20.559Z,7.97
2019-03-10T06:28:20.579Z,7.98
2019-03-10T06:29:20.595Z,7.98
2019-03-10T06:30:20.556Z,7.94
2019-03-10T06:31:20.615Z,7.95
2019-03-10T06:32:20.575Z,7.96
2019-03-10T06:33:20.670Z,7.95
2019-03-10T06:34:20.757Z,7.96
2019-03-10T06:35:20.544Z,7.98
2019-03-10T06:36:20.558Z,7.99
2019-03-10T06:37:20.632Z,7.94
2019-03-10T06:38:20.607Z,7.94
2019-03-10T06:39:20.537Z,7.96
2019-03-10T06:40:32.794Z,7.99
2019-03-10T06:41:20.565Z,7.97
2019-03-10T06:42:20.534Z,7.96
2019-03-10T06:43:20.530Z,7.94
2019-03-10T06:44:21.399Z,7.95
2019-03-10T06:45:20.533Z,7.94
2019-03-10T06:46:20.545Z,7.96
2019-03-10T06:47:20.510Z,8.02
2019-03-10T06:48:20.528Z,8.01
2019-03-10T06:49:20.514Z,8.02
2019-03-10T06:50:20.556Z,8.03
2019-03-10T06:51:20.511Z,8
2019-03-10T06:52:20.546Z,7.98
2019-03-10T06:53:20.511Z,7.97
2019-03-10T06:54:20.523Z,7.98
2019-03-10T06:55:20.570Z,8.01
2019-03-10T06:56:20.514Z,8.03
2019-03-10T06:57:20.524Z,8.01
2019-03-10T06:58:20.503Z,8.03
2019-03-10T06:59:20.536Z,8.05
2019-03-10T07:00:20.510Z,8.05
2019-03-10T07:01:20.534Z,8.04
2019-03-10T07:02:20.547Z,8.07
2019-03-10T07:03:20.523Z,8.06
2019-03-10T07:04:20.512Z,8.08
2019-03-10T07:05:20.521Z,8.11
2019-03-10T07:06:20.494Z,8.15
2019-03-10T07:07:20.505Z,8.13
2019-03-10T07:08:20.566Z,8.14
2019-03-10T07:09:20.528Z,8.12
2019-03-10T07:10:20.522Z,8.16
2019-03-10T07:11:20.486Z,8.12
2019-03-10T07:12:20.480Z,8.13
2019-03-10T07:13:20.494Z,8.17
2019-03-10T07:14:20.486Z,8.19
2019-03-10T07:15:20.498Z,8.2
2019-03-10T07:16:20.499Z,8.18
2019-03-10T07:17:20.738Z,8.18
2019-03-10T07:18:20.505Z,8.18
2019-03-10T07:19:20.498Z,8.18
2019-03-10T07:20:20.472Z,8.21
2019-03-10T07:21:20.505Z,8.25
2019-03-10T07:22:20.485Z,8.26
2019-03-10T07:23:20.472Z,8.25
2019-03-10T07:24:20.498Z,8.28
2019-03-10T07:25:20.507Z,8.24
2019-03-10T07:26:20.521Z,8.27
2019-03-10T07:27:20.587Z,8.28
2019-03-10T07:28:20.466Z,8.28
2019-03-10T07:29:20.524Z,8.34
2019-03-10T07:30:20.459Z,8.36
2019-03-10T07:31:20.458Z,8.34
2019-03-10T07:32:20.464Z,8.39
2019-03-10T07:33:20.543Z,8.41
2019-03-10T07:34:20.499Z,8.41
2019-03-10T07:35:20.459Z,8.41
2019-03-10T07:36:20.459Z,8.49
2019-03-10T07:37:20.458Z,8.54
2019-03-10T07:38:20.439Z,8.55
2019-03-10T07:39:20.498Z,8.58
2019-03-10T07:40:20.441Z,8.63
2019-03-10T07:41:20.476Z,8.67
2019-03-10T07:42:20.510Z,8.71
2019-03-10T07:43:20.466Z,8.73
2019-03-10T07:44:20.457Z,8.78
2019-03-10T07:45:20.439Z,8.77
2019-03-10T07:46:20.443Z,8.76
2019-03-10T07:47:20.501Z,8.76
2019-03-10T07:48:20.442Z,8.82
2019-03-10T07:49:20.524Z,8.87
2019-03-10T07:50:20.453Z,8.82
2019-03-10T07:51:20.432Z,8.82
2019-03-10T07:52:21.046Z,8.84
2019-03-10T07:53:20.428Z,8.81
2019-03-10T07:54:20.496Z,8.82
2019-03-10T07:55:20.401Z,8.84
2019-03-10T07:56:20.475Z,8.9
2019-03-10T07:57:20.427Z,8.88
2019-03-10T07:58:20.415Z,8.88
2019-03-10T07:59:20.488Z,8.85
2019-03-10T08:00:20.426Z,8.94
2019-03-10T08:01:20.509Z,8.94
2019-03-10T08:02:20.417Z,8.96
2019-03-10T08:03:20.418Z,8.98
2019-03-10T08:04:20.420Z,8.99
2019-03-10T08:05:20.449Z,8.97
2019-03-10T08:06:20.423Z,8.92
2019-03-10T08:07:20.443Z,8.98
2019-03-10T08:08:20.450Z,8.97
2019-03-10T08:09:20.451Z,8.92
2019-03-10T08:10:20.450Z,9.02
2019-03-10T08:11:20.411Z,9.04
2019-03-10T08:12:20.410Z,9.03
2019-03-10T08:13:20.434Z,9.07
2019-03-10T08:14:20.435Z,9.09
2019-03-10T08:15:20.505Z,9.08
2019-03-10T08:16:20.437Z,9.09
2019-03-10T08:17:20.485Z,9.08
2019-03-10T08:18:20.426Z,9.14
2019-03-10T08:19:20.399Z,9.2
2019-03-10T08:20:20.409Z,9.19
2019-03-10T08:21:20.417Z,9.19
2019-03-10T08:22:20.585Z,9.19
2019-03-10T08:23:20.453Z,9.2
2019-03-10T08:24:20.424Z,9.23
2019-03-10T08:25:20.449Z,9.23
2019-03-10T08:26:20.405Z,9.2
2019-03-10T08:27:20.411Z,9.24
2019-03-10T08:28:20.792Z,9.23
2019-03-10T08:29:20.389Z,9.29
2019-03-10T08:30:20.383Z,9.33
2019-03-10T08:31:20.386Z,9.31
2019-03-10T08:32:20.397Z,9.35
2019-03-10T08:33:20.410Z,9.34
2019-03-10T08:34:20.418Z,9.32
2019-03-10T08:35:20.383Z,9.37
2019-03-10T08:36:20.378Z,9.39
2019-03-10T08:37:20.374Z,9.34
2019-03-10T08:38:20.380Z,9.31
2019-03-10T08:39:20.392Z,9.35
2019-03-10T08:40:20.372Z,9.43
2019-03-10T08:41:20.379Z,9.4
2019-03-10T08:42:21.135Z,9.39
2019-03-10T08:43:20.370Z,9.4
2019-03-10T08:44:20.422Z,9.39
2019-03-10T08:45:20.377Z,9.44
2019-03-10T08:46:20.358Z,9.47
2019-03-10T08:47:20.406Z,9.4
2019-03-10T08:48:20.382Z,9.46
2019-03-10T08:49:20.370Z,9.48
2019-03-10T08:50:20.376Z,9.49
2019-03-10T08:51:20.346Z,9.49
2019-03-10T08:52:20.382Z,9.51
2019-03-10T08:53:20.367Z,9.46
2019-03-10T08:54:20.350Z,9.45
2019-03-10T08:55:20.342Z,9.52
2019-03-10T08:56:20.351Z,9.53
2019-03-10T08:57:20.347Z,9.58
2019-03-10T08:58:20.377Z,9.53
2019-03-10T08:59:20.373Z,9.53
2019-03-10T09:00:20.339Z,9.5
2019-03-10T09:01:20.353Z,9.53
2019-03-10T09:02:20.361Z,9.53
2019-03-10T09:03:20.336Z,9.52
2019-03-10T09:04:20.335Z,9.53
2019-03-10T09:05:20.346Z,9.59
2019-03-10T09:06:20.631Z,9.59
2019-03-10T09:07:20.315Z,9.67
2019-03-10T09:08:20.366Z,9.62
2019-03-10T09:09:20.412Z,9.64
2019-03-10T09:10:20.335Z,9.69
2019-03-10T09:11:20.317Z,9.67
2019-03-10T09:12:20.340Z,9.75
2019-03-10T09:13:20.317Z,9.7
2019-03-10T09:14:20.336Z,9.72
2019-03-10T09:15:20.351Z,9.74
2019-03-10T09:16:20.302Z,9.71
2019-03-10T09:17:20.308Z,9.73
2019-03-10T09:18:20.397Z,9.76
2019-03-10T09:19:20.337Z,9.73
2019-03-10T09:20:20.328Z,9.73
2019-03-10T09:21:20.312Z,9.8
2019-03-10T09:22:20.345Z,9.8
2019-03-10T09:23:20.326Z,9.76
2019-03-10T09:24:20.357Z,9.76
2019-03-10T09:25:20.339Z,9.75
2019-03-10T09:26:20.322Z,9.73
2019-03-10T09:27:20.343Z,9.78
2019-03-10T09:28:20.505Z,9.79
2019-03-10T09:29:20.331Z,9.76
2019-03-10T09:30:20.310Z,9.8
2019-03-10T09:31:20.319Z,9.82
2019-03-10T09:32:20.334Z,9.77
2019-03-10T09:33:20.408Z,9.84
2019-03-10T09:34:20.346Z,9.85
2019-03-10T09:35:20.318Z,9.78
2019-03-10T09:36:20.361Z,9.82
2019-03-10T09:37:20.326Z,9.83
2019-03-10T09:38:20.345Z,9.85
2019-03-10T09:39:20.363Z,9.8
2019-03-10T09:40:20.285Z,9.76
2019-03-10T09:41:20.317Z,9.76
2019-03-10T09:42:20.290Z,9.75
2019-03-10T09:43:20.301Z,9.74
2019-03-10T09:44:20.329Z,9.78
2019-03-10T09:45:20.331Z,9.77
2019-03-10T09:46:20.298Z,9.77
2019-03-10T09:47:20.349Z,9.78
2019-03-10T09:48:20.282Z,9.77
2019-03-10T09:49:20.517Z,9.78
2019-03-10T09:50:20.366Z,9.76
2019-03-10T09:51:20.296Z,9.79
2019-03-10T09:52:20.316Z,9.83
2019-03-10T09:53:20.399Z,9.84
2019-03-10T09:54:20.364Z,9.83
2019-03-10T09:55:20.289Z,9.73
2019-03-10T09:56:20.295Z,9.79
2019-03-10T09:57:20.312Z,9.81
2019-03-10T09:58:20.295Z,9.81
2019-03-10T09:59:20.283Z,9.82
2019-03-10T10:00:20.320Z,9.83
2019-03-10T10:01:20.378Z,9.83
2019-03-10T10:02:20.416Z,9.81
2019-03-10T10:03:20.381Z,9.82
2019-03-10T10:04:20.299Z,9.77
2019-03-10T10:05:20.254Z,9.83
2019-03-10T10:06:20.282Z,9.82
2019-03-10T10:07:20.268Z,9.74
2019-03-10T10:08:20.271Z,9.75
2019-03-10T10:09:20.303Z,9.8
2019-03-10T10:10:20.283Z,9.75
2019-03-10T10:11:20.293Z,9.78
2019-03-10T10:12:20.711Z,9.78
2019-03-10T10:13:20.308Z,9.79
2019-03-10T10:14:20.290Z,9.85
2019-03-10T10:15:20.271Z,9.82
2019-03-10T10:16:20.284Z,9.76
2019-03-10T10:17:20.290Z,9.8
2019-03-10T10:18:20.289Z,9.83
2019-03-10T10:19:20.250Z,9.78
2019-03-10T10:20:20.277Z,9.78
2019-03-10T10:21:20.259Z,9.82
2019-03-10T10:22:20.284Z,9.78
2019-03-10T10:23:20.266Z,9.85
2019-03-10T10:24:20.269Z,9.89
2019-03-10T10:25:20.262Z,9.87
2019-03-10T10:26:20.249Z,9.84
2019-03-10T10:27:20.513Z,9.82
2019-03-10T10:28:20.439Z,9.89
2019-03-10T10:29:20.307Z,9.92
2019-03-10T10:30:20.380Z,9.9
2019-03-10T10:31:20.338Z,9.83
2019-03-10T10:32:20.364Z,9.84
2019-03-10T10:33:20.490Z,9.79
2019-03-10T10:34:20.295Z,9.79
2019-03-10T10:35:20.222Z,9.79
2019-03-10T10:36:20.228Z,9.83
2019-03-10T10:37:20.251Z,9.82
2019-03-10T10:38:20.221Z,9.85
2019-03-10T10:39:20.292Z,9.79
2019-03-10T10:40:20.239Z,9.76
2019-03-10T10:41:20.257Z,9.8
2019-03-10T10:42:20.222Z,9.8
2019-03-10T10:43:20.197Z,9.72
2019-03-10T10:44:20.201Z,9.68
2019-03-10T10:45:20.227Z,9.66
2019-03-10T10:46:20.231Z,9.67
2019-03-10T10:47:20.234Z,9.72
2019-03-10T10:48:20.208Z,9.74
2019-03-10T10:49:20.298Z,9.67
2019-03-10T10:50:20.387Z,9.67
2019-03-10T10:51:20.275Z,9.7
2019-03-10T10:52:20.384Z,9.62
2019-03-10T10:53:21.904Z,9.56
2019-03-10T10:54:20.331Z,9.55
2019-03-10T10:55:20.492Z,9.59
2019-03-10T10:56:20.269Z,9.57
2019-03-10T10:57:20.391Z,9.64
2019-03-10T10:58:20.221Z,9.63
2019-03-10T10:59:20.206Z,9.66
2019-03-10T11:00:20.312Z,9.65
2019-03-10T11:01:20.224Z,9.58
2019-03-10T11:02:20.286Z,9.53
2019-03-10T11:03:20.243Z,9.44
2019-03-10T11:04:20.208Z,9.51
2019-03-10T11:05:20.346Z,9.57
2019-03-10T11:06:20.257Z,9.65
2019-03-10T11:07:20.185Z,9.6
2019-03-10T11:08:20.590Z,9.59
2019-03-10T11:09:20.221Z,9.62
2019-03-10T11:10:20.208Z,9.64
2019-03-10T11:11:20.215Z,9.66
2019-03-10T11:12:20.254Z,9.62
2019-03-10T11:13:20.239Z,9.63
2019-03-10T11:14:20.201Z,9.52
2019-03-10T11:15:20.210Z,9.52
2019-03-10T11:16:20.810Z,9.55
2019-03-10T11:17:20.263Z,9.51
2019-03-10T11:18:20.230Z,9.52
2019-03-10T11:19:20.194Z,9.5
2019-03-10T11:20:20.180Z,9.53
2019-03-10T11:21:20.170Z,9.51
2019-03-10T11:22:20.205Z,9.51
2019-03-10T11:23:20.182Z,9.48
2019-03-10T11:24:20.185Z,9.47
2019-03-10T11:25:20.154Z,9.49
2019-03-10T11:26:20.155Z,9.42
2019-03-10T11:27:20.199Z,9.45
2019-03-10T11:28:20.165Z,9.49
2019-03-10T11:29:20.314Z,9.48
2019-03-10T11:30:20.144Z,9.47
2019-03-10T11:31:20.338Z,9.41
2019-03-10T11:32:20.178Z,9.42
2019-03-10T11:33:20.285Z,9.49
2019-03-10T11:34:20.177Z,9.52
2019-03-10T11:35:20.147Z,9.49
2019-03-10T11:36:20.256Z,9.48
2019-03-10T11:37:20.513Z,9.55
2019-03-10T11:38:20.236Z,9.53
2019-03-10T11:39:20.224Z,9.49
2019-03-10T11:40:20.239Z,9.48
2019-03-10T11:41:20.188Z,9.46
2019-03-10T11:42:20.162Z,9.49
2019-03-10T11:43:23.148Z,9.54
2019-03-10T11:44:20.234Z,9.49
2019-03-10T11:45:20.161Z,9.51
2019-03-10T11:46:20.163Z,9.47
2019-03-10T11:47:20.160Z,9.38
2019-03-10T11:48:20.139Z,9.41
2019-03-10T11:49:20.191Z,9.41
2019-03-10T11:50:20.160Z,9.44
2019-03-10T11:51:20.173Z,9.38
2019-03-10T11:52:20.131Z,9.32
2019-03-10T11:53:20.145Z,9.39
2019-03-10T11:54:20.176Z,9.42
2019-03-10T11:55:20.683Z,9.43
2019-03-10T11:56:20.311Z,9.48
2019-03-10T11:57:20.195Z,9.43
2019-03-10T11:58:20.225Z,9.41
2019-03-10T11:59:20.214Z,9.45
2019-03-10T12:00:20.262Z,9.53
2019-03-10T12:01:20.122Z,9.56
2019-03-10T12:02:20.125Z,9.6
2019-03-10T12:03:20.118Z,9.6
2019-03-10T12:04:20.146Z,9.43
2019-03-10T12:05:20.120Z,9.48
2019-03-10T12:06:20.134Z,9.48
2019-03-10T12:07:20.138Z,9.47
2019-03-10T12:08:20.109Z,9.51
2019-03-10T12:09:20.181Z,9.56
2019-03-10T12:10:22.004Z,9.48
2019-03-10T12:11:20.148Z,9.4
2019-03-10T12:12:20.122Z,9.46
2019-03-10T12:13:20.119Z,9.3
2019-03-10T12:14:20.097Z,9.31
2019-03-10T12:15:20.143Z,9.19
2019-03-10T12:16:20.103Z,9.31
2019-03-10T12:17:20.182Z,9.31
2019-03-10T12:18:20.137Z,9.24
2019-03-10T12:19:20.089Z,9.22
2019-03-10T12:20:20.101Z,9.24
2019-03-10T12:21:20.439Z,9.23
2019-03-10T12:22:20.145Z,9.14
2019-03-10T12:23:20.144Z,9.13
2019-03-10T12:24:20.151Z,9.2
2019-03-10T12:25:20.096Z,9.06
2019-03-10T12:26:20.092Z,8.99
2019-03-10T12:27:20.252Z,9
2019-03-10T12:28:20.093Z,9.03
2019-03-10T12:29:20.148Z,9.08
2019-03-10T12:30:20.072Z,9.06
2019-03-10T12:31:20.108Z,8.99
2019-03-10T12:32:20.081Z,9.03
2019-03-10T12:33:20.280Z,9.08
2019-03-10T12:34:20.073Z,9.09
2019-03-10T12:35:20.078Z,9.01
2019-03-10T12:36:20.098Z,9.06
2019-03-10T12:37:20.096Z,9
2019-03-10T12:38:20.094Z,8.89
2019-03-10T12:39:20.110Z,8.96
2019-03-10T12:40:21.038Z,8.86
2019-03-10T12:41:20.089Z,8.94
2019-03-10T12:42:20.182Z,8.96
2019-03-10T12:43:20.087Z,8.92
2019-03-10T12:44:20.041Z,8.87
2019-03-10T12:45:20.074Z,8.99
2019-03-10T12:46:20.132Z,8.94
2019-03-10T12:47:20.037Z,8.97
2019-03-10T12:48:20.059Z,9.07
2019-03-10T12:49:20.064Z,9.03
2019-03-10T12:50:20.095Z,8.88
2019-03-10T12:51:20.060Z,8.93
2019-03-10T12:52:20.090Z,9.03
2019-03-10T12:53:20.044Z,8.83
2019-03-10T12:54:20.043Z,8.85
2019-03-10T12:55:20.031Z,8.67
2019-03-10T12:56:20.121Z,8.76
2019-03-10T12:57:20.027Z,8.69
2019-03-10T12:58:20.030Z,8.81
2019-03-10T12:59:20.046Z,8.77
2019-03-10T13:00:20.046Z,8.83
2019-03-10T13:01:20.034Z,8.75
2019-03-10T13:02:20.056Z,8.72
2019-03-10T13:03:20.036Z,8.56
2019-03-10T13:04:20.106Z,8.44
2019-03-10T13:05:20.637Z,8.59
2019-03-10T13:06:20.054Z,8.54
2019-03-10T13:07:20.028Z,8.53
2019-03-10T13:08:19.997Z,8.53
2019-03-10T13:09:20.026Z,8.46
2019-03-10T13:10:20.015Z,8.42
2019-03-10T13:11:20.019Z,8.51
2019-03-10T13:12:20.045Z,8.26
2019-03-10T13:13:20.047Z,8.3
2019-03-10T13:14:20.040Z,8.2
2019-03-10T13:15:20.025Z,8.22
2019-03-10T13:16:20.026Z,8.09
2019-03-10T13:17:20.068Z,8.19
2019-03-10T13:18:20.006Z,8.25
2019-03-10T13:19:20.013Z,8.38
2019-03-10T13:20:28.905Z,8.34
2019-03-10T13:21:20.441Z,8.3